createdAt,value
2017-03-27T00:00:04.487Z,8.08
2017-03-27T00:00:45.367Z,8.03
2017-03-27T00:01:26.238Z,8.06
2017-03-27T00:02:07.117Z,8.01
2017-03-27T00:02:48.001Z,8.05
2017-03-27T00:03:28.886Z,8.1
2017-03-27T00:04:09.772Z,8.2
2017-03-27T00:04:50.650Z,8.08
2017-03-27T00:05:31.531Z,8.16
2017-03-27T00:06:12.420Z,8.05
2017-03-27T00:06:53.303Z,8.09
2017-03-27T00:07:34.189Z,8.03
2017-03-27T00:08:15.067Z,8.06
2017-03-27T00:08:55.952Z,8.08
2017-03-27T00:09:36.840Z,7.97
2017-03-27T00:10:17.717Z,7.95
2017-03-27T00:10:58.594Z,7.85
2017-03-27T00:11:39.478Z,7.82
2017-03-27T00:12:20.372Z,7.83
2017-03-27T00:13:01.251Z,7.83
2017-03-27T00:13:42.136Z,7.98
2017-03-27T00:14:23.016Z,8.09
2017-03-27T00:15:03.909Z,7.97
2017-03-27T00:15:44.787Z,8
2017-03-27T00:16:25.673Z,7.97
2017-03-27T00:17:06.558Z,7.85
2017-03-27T00:17:47.433Z,7.85
2017-03-27T00:18:28.313Z,8
2017-03-27T00:19:09.198Z,8.06
2017-03-27T00:19:50.083Z,8.09
2017-03-27T00:20:30.968Z,8.13
2017-03-27T00:21:11.847Z,8.06
2017-03-27T00:21:52.736Z,7.97
2017-03-27T00:22:33.625Z,7.87
2017-03-27T00:23:14.505Z,7.88
2017-03-27T00:23:55.387Z,7.87
2017-03-27T00:24:36.267Z,8
2017-03-27T00:25:17.147Z,8.05
2017-03-27T00:25:58.033Z,8.2
2017-03-27T00:26:38.908Z,8.18
2017-03-27T00:27:19.782Z,8.27
2017-03-27T00:28:00.664Z,8.24
2017-03-27T00:28:41.540Z,8.13
2017-03-27T00:29:22.426Z,8.12
2017-03-27T00:30:03.305Z,7.85
2017-03-27T00:30:44.190Z,7.67
2017-03-27T00:31:25.085Z,7.67
2017-03-27T00:32:05.965Z,7.67
2017-03-27T00:32:46.875Z,7.61
2017-03-27T00:33:27.752Z,7.67
2017-03-27T00:34:08.625Z,7.56
2017-03-27T00:34:49.508Z,7.66
2017-03-27T00:35:30.398Z,7.67
2017-03-27T00:36:11.281Z,7.8
2017-03-27T00:36:52.154Z,7.77
2017-03-27T00:37:33.027Z,7.79
2017-03-27T00:38:13.909Z,7.76
2017-03-27T00:38:54.788Z,7.72
2017-03-27T00:39:35.675Z,7.66
2017-03-27T00:40:16.557Z,7.7
2017-03-27T00:40:57.437Z,7.61
2017-03-27T00:41:38.320Z,7.58
2017-03-27T00:42:19.204Z,7.67
2017-03-27T00:43:00.085Z,7.61
2017-03-27T00:43:40.980Z,7.63
2017-03-27T00:44:21.882Z,7.61
2017-03-27T00:45:02.776Z,7.57
2017-03-27T00:45:43.650Z,7.66
2017-03-27T00:46:24.534Z,7.6
2017-03-27T00:47:05.419Z,7.56
2017-03-27T00:47:46.302Z,7.63
2017-03-27T00:48:27.175Z,7.63
2017-03-27T00:49:08.052Z,7.63
2017-03-27T00:49:48.933Z,7.61
2017-03-27T00:50:29.814Z,7.58
2017-03-27T00:51:10.691Z,7.56
2017-03-27T00:51:51.571Z,7.63
2017-03-27T00:52:32.450Z,7.56
2017-03-27T00:53:13.337Z,7.61
2017-03-27T00:53:54.232Z,7.58
2017-03-27T00:54:35.109Z,7.67
2017-03-27T00:55:16.006Z,7.83
2017-03-27T00:55:56.882Z,7.82
2017-03-27T00:56:37.761Z,7.88
2017-03-27T00:57:18.639Z,7.75
2017-03-27T00:57:59.526Z,7.75
2017-03-27T00:58:40.408Z,7.63
2017-03-27T00:59:21.283Z,7.57
2017-03-27T01:00:02.163Z,7.53
2017-03-27T01:00:43.044Z,7.47
2017-03-27T01:01:23.925Z,7.51
2017-03-27T01:02:04.806Z,7.53
2017-03-27T01:02:45.685Z,7.75
2017-03-27T01:03:26.566Z,7.73
2017-03-27T01:04:07.444Z,7.67
2017-03-27T01:04:48.329Z,7.77
2017-03-27T01:05:29.210Z,7.85
2017-03-27T01:06:10.089Z,7.98
2017-03-27T01:06:50.966Z,7.85
2017-03-27T01:07:31.846Z,7.83
2017-03-27T01:08:12.731Z,7.82
2017-03-27T01:08:53.612Z,7.93
2017-03-27T01:09:34.486Z,7.93
2017-03-27T01:10:15.369Z,7.97
2017-03-27T01:10:56.250Z,7.83
2017-03-27T01:11:37.127Z,7.9
2017-03-27T01:12:18.007Z,7.91
2017-03-27T01:12:58.908Z,7.82
2017-03-27T01:13:39.790Z,7.87
2017-03-27T01:14:20.682Z,7.69
2017-03-27T01:15:01.558Z,7.69
2017-03-27T01:15:42.446Z,7.8
2017-03-27T01:16:23.330Z,7.77
2017-03-27T01:17:04.209Z,7.85
2017-03-27T01:17:45.088Z,7.72
2017-03-27T01:18:25.972Z,7.87
2017-03-27T01:19:06.858Z,7.83
2017-03-27T01:19:47.734Z,7.79
2017-03-27T01:20:28.617Z,7.8
2017-03-27T01:21:09.503Z,7.82
2017-03-27T01:21:50.383Z,7.8
2017-03-27T01:22:31.276Z,7.8
2017-03-27T01:23:12.153Z,7.85
2017-03-27T01:23:53.047Z,7.61
2017-03-27T01:24:33.936Z,7.58
2017-03-27T01:25:14.811Z,7.73
2017-03-27T01:25:55.699Z,7.69
2017-03-27T01:26:36.588Z,7.7
2017-03-27T01:27:17.463Z,7.69
2017-03-27T01:27:58.347Z,7.66
2017-03-27T01:28:39.246Z,7.75
2017-03-27T01:29:20.116Z,7.7
2017-03-27T01:30:00.996Z,7.76
2017-03-27T01:30:41.877Z,7.77
2017-03-27T01:31:22.760Z,7.75
2017-03-27T01:32:03.652Z,7.77
2017-03-27T01:32:44.521Z,7.66
2017-03-27T01:33:25.403Z,7.67
2017-03-27T01:34:06.291Z,7.69
2017-03-27T01:34:47.179Z,7.72
2017-03-27T01:35:28.061Z,7.63
2017-03-27T01:36:08.938Z,7.6
2017-03-27T01:36:49.827Z,7.7
2017-03-27T01:37:30.719Z,7.75
2017-03-27T01:38:11.597Z,7.66
2017-03-27T01:38:52.483Z,7.7
2017-03-27T01:39:33.361Z,7.63
2017-03-27T01:40:14.246Z,7.69
2017-03-27T01:40:55.129Z,7.61
2017-03-27T01:41:36.009Z,7.66
2017-03-27T01:42:16.892Z,7.66
2017-03-27T01:42:57.775Z,7.76
2017-03-27T01:43:38.665Z,7.63
2017-03-27T01:44:19.542Z,7.7
2017-03-27T01:45:00.425Z,7.61
2017-03-27T01:45:41.306Z,7.67
2017-03-27T01:46:22.187Z,7.67
2017-03-27T01:47:03.084Z,7.69
2017-03-27T01:47:43.967Z,7.57
2017-03-27T01:48:24.818Z,7.67
2017-03-27T01:49:05.703Z,7.63
2017-03-27T01:49:46.587Z,7.66
2017-03-27T01:50:27.473Z,7.61
2017-03-27T01:51:08.352Z,7.53
2017-03-27T01:51:49.225Z,7.58
2017-03-27T01:52:30.121Z,7.48
2017-03-27T01:53:11.004Z,7.56
2017-03-27T01:53:51.885Z,7.58
2017-03-27T01:54:32.772Z,7.57
2017-03-27T01:55:13.653Z,7.67
2017-03-27T01:55:54.527Z,7.69
2017-03-27T01:56:35.411Z,7.63
2017-03-27T01:57:16.294Z,7.58
2017-03-27T01:57:57.180Z,7.51
2017-03-27T01:58:38.065Z,7.56
2017-03-27T01:59:18.945Z,7.5
2017-03-27T01:59:59.827Z,7.51
2017-03-27T02:00:40.707Z,7.5
2017-03-27T02:01:21.576Z,7.51
2017-03-27T02:02:02.457Z,7.5
2017-03-27T02:02:43.333Z,7.53
2017-03-27T02:03:24.206Z,7.47
2017-03-27T02:04:05.085Z,7.53
2017-03-27T02:04:45.976Z,7.53
2017-03-27T02:05:26.861Z,7.58
2017-03-27T02:06:07.739Z,7.56
2017-03-27T02:06:48.620Z,7.51
2017-03-27T02:07:29.504Z,7.53
2017-03-27T02:08:10.383Z,7.48
2017-03-27T02:08:51.259Z,7.51
2017-03-27T02:09:32.145Z,7.48
2017-03-27T02:10:13.035Z,7.39
2017-03-27T02:10:53.917Z,7.42
2017-03-27T02:11:34.796Z,7.45
2017-03-27T02:12:15.674Z,7.47
2017-03-27T02:12:56.556Z,7.43
2017-03-27T02:13:37.437Z,7.39
2017-03-27T02:14:18.329Z,7.33
2017-03-27T02:14:59.199Z,7.39
2017-03-27T02:15:40.094Z,7.47
2017-03-27T02:16:20.982Z,7.51
2017-03-27T02:17:01.859Z,7.47
2017-03-27T02:17:42.778Z,7.48
2017-03-27T02:18:23.660Z,7.42
2017-03-27T02:19:04.513Z,7.45
2017-03-27T02:19:45.394Z,7.4
2017-03-27T02:20:26.276Z,7.36
2017-03-27T02:21:07.158Z,7.42
2017-03-27T02:21:48.046Z,7.36
2017-03-27T02:22:28.925Z,7.38
2017-03-27T02:23:09.799Z,7.29
2017-03-27T02:23:50.680Z,7.31
2017-03-27T02:24:31.563Z,7.32
2017-03-27T02:25:12.443Z,7.29
2017-03-27T02:25:53.327Z,7.33
2017-03-27T02:26:34.205Z,7.31
2017-03-27T02:27:15.082Z,7.31
2017-03-27T02:27:55.974Z,7.31
2017-03-27T02:28:36.853Z,7.29
2017-03-27T02:29:17.717Z,7.35
2017-03-27T02:29:58.599Z,7.39
2017-03-27T02:30:39.485Z,7.4
2017-03-27T02:31:20.364Z,7.35
2017-03-27T02:32:01.248Z,7.47
2017-03-27T02:32:42.127Z,7.48
2017-03-27T02:33:23.011Z,7.31
2017-03-27T02:34:03.899Z,7.2
2017-03-27T02:34:44.768Z,7.28
2017-03-27T02:35:25.660Z,7.31
2017-03-27T02:36:06.552Z,7.33
2017-03-27T02:36:47.429Z,7.33
2017-03-27T02:37:28.314Z,7.21
2017-03-27T02:38:09.194Z,7.25
2017-03-27T02:38:50.077Z,7.28
2017-03-27T02:39:30.984Z,7.25
2017-03-27T02:40:11.854Z,7.25
2017-03-27T02:40:52.734Z,7.23
2017-03-27T02:41:33.618Z,7.06
2017-03-27T02:42:14.496Z,7.07
2017-03-27T02:42:55.381Z,7.17
2017-03-27T02:43:36.260Z,7
2017-03-27T02:44:17.157Z,7.02
2017-03-27T02:44:58.030Z,7.03
2017-03-27T02:45:38.905Z,6.87
2017-03-27T02:46:19.792Z,6.82
2017-03-27T02:47:00.678Z,6.82
2017-03-27T02:47:41.560Z,6.93
2017-03-27T02:48:22.453Z,6.93
2017-03-27T02:49:03.338Z,7.02
2017-03-27T02:49:44.218Z,7.03
2017-03-27T02:50:25.095Z,7.03
2017-03-27T02:51:05.975Z,7.1
2017-03-27T02:51:46.859Z,7.15
2017-03-27T02:52:27.734Z,7.06
2017-03-27T02:53:08.618Z,6.95
2017-03-27T02:53:49.499Z,6.87
2017-03-27T02:54:30.384Z,6.88
2017-03-27T02:55:11.271Z,6.88
2017-03-27T02:55:52.151Z,6.93
2017-03-27T02:56:33.041Z,6.92
2017-03-27T02:57:13.922Z,6.96
2017-03-27T02:57:54.806Z,6.96
2017-03-27T02:58:35.692Z,7.02
2017-03-27T02:59:16.574Z,7
2017-03-27T02:59:57.458Z,7.06
2017-03-27T03:00:38.345Z,7.11
2017-03-27T03:01:19.217Z,7.06
2017-03-27T03:02:00.103Z,7.07
2017-03-27T03:02:40.980Z,7.07
2017-03-27T03:03:21.865Z,7.06
2017-03-27T03:04:02.753Z,7.07
2017-03-27T03:04:43.646Z,7.03
2017-03-27T03:05:24.528Z,7.02
2017-03-27T03:06:05.411Z,6.84
2017-03-27T03:06:46.294Z,6.87
2017-03-27T03:07:27.169Z,6.77
2017-03-27T03:08:08.058Z,6.81
2017-03-27T03:08:48.944Z,6.88
2017-03-27T03:09:29.826Z,6.84
2017-03-27T03:10:10.708Z,6.95
2017-03-27T03:10:51.614Z,7.02
2017-03-27T03:11:32.494Z,7.02
2017-03-27T03:12:13.373Z,6.99
2017-03-27T03:12:54.249Z,6.93
2017-03-27T03:13:35.133Z,6.89
2017-03-27T03:14:16.018Z,6.87
2017-03-27T03:14:56.894Z,6.97
2017-03-27T03:15:37.775Z,7.03
2017-03-27T03:16:18.671Z,7.05
2017-03-27T03:16:59.551Z,7
2017-03-27T03:17:40.430Z,6.99
2017-03-27T03:18:21.318Z,7.02
2017-03-27T03:19:02.205Z,7
2017-03-27T03:19:43.099Z,6.99
2017-03-27T03:20:23.988Z,7.05
2017-03-27T03:21:04.874Z,6.93
2017-03-27T03:21:45.760Z,7.02
2017-03-27T03:22:26.640Z,7
2017-03-27T03:23:07.532Z,6.92
2017-03-27T03:23:48.408Z,6.88
2017-03-27T03:24:29.294Z,6.87
2017-03-27T03:25:10.181Z,6.85
2017-03-27T03:25:51.064Z,6.85
2017-03-27T03:26:31.952Z,6.77
2017-03-27T03:27:12.837Z,6.84
2017-03-27T03:27:53.705Z,6.89
2017-03-27T03:28:34.592Z,6.84
2017-03-27T03:29:15.469Z,6.7
2017-03-27T03:29:56.353Z,6.78
2017-03-27T03:30:37.239Z,6.82
2017-03-27T03:31:18.116Z,6.87
2017-03-27T03:31:59.013Z,6.87
2017-03-27T03:32:39.887Z,6.82
2017-03-27T03:33:20.772Z,6.88
2017-03-27T03:34:01.659Z,6.93
2017-03-27T03:34:42.542Z,6.82
2017-03-27T03:35:23.423Z,6.85
2017-03-27T03:36:04.302Z,6.87
2017-03-27T03:36:45.180Z,6.87
2017-03-27T03:37:26.064Z,6.88
2017-03-27T03:38:06.947Z,6.84
2017-03-27T03:38:47.834Z,6.89
2017-03-27T03:39:28.715Z,6.93
2017-03-27T03:40:09.614Z,6.87
2017-03-27T03:40:50.492Z,6.88
2017-03-27T03:41:31.376Z,6.79
2017-03-27T03:42:12.276Z,6.87
2017-03-27T03:42:53.154Z,6.84
2017-03-27T03:43:34.032Z,6.85
2017-03-27T03:44:14.914Z,6.81
2017-03-27T03:44:55.781Z,6.74
2017-03-27T03:45:36.666Z,6.74
2017-03-27T03:46:17.547Z,6.77
2017-03-27T03:46:58.426Z,6.74
2017-03-27T03:47:39.306Z,6.75
2017-03-27T03:48:20.191Z,6.67
2017-03-27T03:49:01.084Z,6.74
2017-03-27T03:49:41.950Z,6.7
2017-03-27T03:50:22.840Z,6.87
2017-03-27T03:51:03.733Z,6.84
2017-03-27T03:51:44.619Z,6.85
2017-03-27T03:52:25.504Z,6.84
2017-03-27T03:53:06.384Z,6.75
2017-03-27T03:53:47.275Z,6.74
2017-03-27T03:54:28.158Z,6.69
2017-03-27T03:55:09.034Z,6.62
2017-03-27T03:55:49.914Z,6.64
2017-03-27T03:56:30.798Z,6.66
2017-03-27T03:57:11.685Z,6.63
2017-03-27T03:57:52.559Z,6.7
2017-03-27T03:58:33.448Z,6.7
2017-03-27T03:59:14.334Z,6.66
2017-03-27T03:59:55.216Z,6.75
2017-03-27T04:00:36.100Z,6.74
2017-03-27T04:01:16.985Z,6.75
2017-03-27T04:01:57.873Z,6.67
2017-03-27T04:02:38.759Z,6.75
2017-03-27T04:03:19.637Z,6.84
2017-03-27T04:04:00.514Z,6.84
2017-03-27T04:04:41.398Z,6.79
2017-03-27T04:05:22.281Z,6.74
2017-03-27T04:06:03.156Z,6.63
2017-03-27T04:06:44.030Z,6.67
2017-03-27T04:07:24.910Z,6.63
2017-03-27T04:08:05.796Z,6.59
2017-03-27T04:08:46.678Z,6.57
2017-03-27T04:09:27.560Z,6.63
2017-03-27T04:10:08.439Z,6.63
2017-03-27T04:10:49.324Z,6.69
2017-03-27T04:11:30.208Z,6.77
2017-03-27T04:12:11.091Z,6.74
2017-03-27T04:12:51.969Z,6.7
2017-03-27T04:13:32.858Z,6.7
2017-03-27T04:14:13.746Z,6.67
2017-03-27T04:14:54.637Z,6.49
2017-03-27T04:15:35.512Z,6.44
2017-03-27T04:16:16.391Z,6.41
2017-03-27T04:16:57.281Z,6.46
2017-03-27T04:17:38.158Z,6.41
2017-03-27T04:18:19.044Z,6.45
2017-03-27T04:18:59.928Z,6.41
2017-03-27T04:19:40.804Z,6.45
2017-03-27T04:20:21.684Z,6.49
2017-03-27T04:21:02.565Z,6.42
2017-03-27T04:21:43.444Z,6.56
2017-03-27T04:22:24.328Z,6.51
2017-03-27T04:23:05.208Z,6.57
2017-03-27T04:23:46.086Z,6.56
2017-03-27T04:24:26.970Z,6.46
2017-03-27T04:25:07.865Z,6.45
2017-03-27T04:25:48.749Z,6.42
2017-03-27T04:26:29.640Z,6.42
2017-03-27T04:27:10.531Z,6.42
2017-03-27T04:27:51.412Z,6.42
2017-03-27T04:28:32.291Z,6.52
2017-03-27T04:29:13.169Z,6.42
2017-03-27T04:29:54.056Z,6.56
2017-03-27T04:30:34.944Z,6.52
2017-03-27T04:31:15.829Z,6.41
2017-03-27T04:31:56.699Z,6.56
2017-03-27T04:32:37.581Z,6.44
2017-03-27T04:33:18.468Z,6.54
2017-03-27T04:33:59.351Z,6.54
2017-03-27T04:34:40.227Z,6.62
2017-03-27T04:35:21.110Z,6.52
2017-03-27T04:36:01.991Z,6.44
2017-03-27T04:36:42.874Z,6.38
2017-03-27T04:37:23.753Z,6.42
2017-03-27T04:38:04.638Z,6.44
2017-03-27T04:38:45.516Z,6.46
2017-03-27T04:39:26.397Z,6.41
2017-03-27T04:40:07.283Z,6.3
2017-03-27T04:40:48.155Z,6.48
2017-03-27T04:41:29.038Z,6.41
2017-03-27T04:42:09.928Z,6.41
2017-03-27T04:42:50.816Z,6.45
2017-03-27T04:43:31.689Z,6.42
2017-03-27T04:44:12.572Z,6.12
2017-03-27T04:44:53.459Z,6.2
2017-03-27T04:45:34.331Z,6.27
2017-03-27T04:46:15.212Z,6.3
2017-03-27T04:46:56.095Z,6.19
2017-03-27T04:47:36.973Z,6.12
2017-03-27T04:48:17.862Z,6.33
2017-03-27T04:48:58.743Z,6.31
2017-03-27T04:49:39.621Z,6.24
2017-03-27T04:50:20.505Z,6.3
2017-03-27T04:51:01.386Z,6.33
2017-03-27T04:51:42.264Z,6.33
2017-03-27T04:52:23.155Z,6.19
2017-03-27T04:53:04.040Z,6.3
2017-03-27T04:53:44.939Z,6.3
2017-03-27T04:54:25.806Z,6.31
2017-03-27T04:55:06.687Z,6.35
2017-03-27T04:55:47.570Z,6.19
2017-03-27T04:56:28.458Z,6.22
2017-03-27T04:57:09.331Z,6.16
2017-03-27T04:57:50.207Z,6.3
2017-03-27T04:58:31.076Z,6.3
2017-03-27T04:59:11.958Z,6.17
2017-03-27T04:59:52.848Z,6.24
2017-03-27T05:00:33.734Z,6.28
2017-03-27T05:01:14.621Z,6.3
2017-03-27T05:01:55.507Z,6.33
2017-03-27T05:02:36.389Z,6.27
2017-03-27T05:03:17.267Z,6.3
2017-03-27T05:03:58.141Z,6.35
2017-03-27T05:04:39.024Z,6.36
2017-03-27T05:05:19.906Z,6.33
2017-03-27T05:06:00.786Z,6.41
2017-03-27T05:06:41.661Z,6.36
2017-03-27T05:07:22.540Z,6.33
2017-03-27T05:08:03.437Z,6.41
2017-03-27T05:08:44.317Z,6.42
2017-03-27T05:09:25.194Z,6.33
2017-03-27T05:10:06.070Z,6.31
2017-03-27T05:10:46.962Z,6.46
2017-03-27T05:11:27.852Z,6.44
2017-03-27T05:12:08.732Z,6.45
2017-03-27T05:12:49.607Z,6.39
2017-03-27T05:13:30.490Z,6.45
2017-03-27T05:14:11.370Z,6.39
2017-03-27T05:14:52.255Z,6.35
2017-03-27T05:15:33.131Z,6.45
2017-03-27T05:16:14.011Z,6.49
2017-03-27T05:16:54.894Z,6.36
2017-03-27T05:17:35.779Z,6.24
2017-03-27T05:18:16.662Z,6.27
2017-03-27T05:18:57.541Z,6.31
2017-03-27T05:19:38.422Z,6.31
2017-03-27T05:20:19.303Z,6.35
2017-03-27T05:21:00.194Z,6.22
2017-03-27T05:21:41.049Z,6.2
2017-03-27T05:22:21.924Z,6.28
2017-03-27T05:23:02.799Z,6.2
2017-03-27T05:23:43.685Z,6.19
2017-03-27T05:24:24.563Z,6.24
2017-03-27T05:25:05.441Z,6.26
2017-03-27T05:25:46.322Z,6.27
2017-03-27T05:26:27.210Z,6.33
2017-03-27T05:27:08.085Z,6.3
2017-03-27T05:27:48.964Z,6.45
2017-03-27T05:28:29.842Z,6.33
2017-03-27T05:29:10.727Z,6.33
2017-03-27T05:29:51.612Z,6.2
2017-03-27T05:30:32.486Z,6.08
2017-03-27T05:31:13.361Z,6.14
2017-03-27T05:31:54.246Z,6.11
2017-03-27T05:32:35.125Z,6.17
2017-03-27T05:33:16.001Z,6.2
2017-03-27T05:33:56.885Z,6.3
2017-03-27T05:34:37.761Z,6.35
2017-03-27T05:35:18.632Z,6.38
2017-03-27T05:35:59.502Z,6.44
2017-03-27T05:36:40.382Z,6.41
2017-03-27T05:37:21.263Z,6.44
2017-03-27T05:38:02.134Z,6.54
2017-03-27T05:38:43.015Z,6.51
2017-03-27T05:39:23.908Z,6.57
2017-03-27T05:40:04.791Z,6.63
2017-03-27T05:40:45.673Z,6.63
2017-03-27T05:41:26.554Z,6.67
2017-03-27T05:42:07.431Z,6.7
2017-03-27T05:42:48.309Z,6.72
2017-03-27T05:43:29.195Z,6.74
2017-03-27T05:44:10.079Z,6.7
2017-03-27T05:44:50.954Z,6.66
2017-03-27T05:45:31.832Z,6.77
2017-03-27T05:46:12.706Z,6.66
2017-03-27T05:46:53.591Z,6.77
2017-03-27T05:47:34.474Z,6.67
2017-03-27T05:48:15.354Z,6.74
2017-03-27T05:48:56.233Z,6.69
2017-03-27T05:49:37.115Z,6.7
2017-03-27T05:50:17.999Z,6.79
2017-03-27T05:50:58.880Z,6.81
2017-03-27T05:51:39.762Z,6.75
2017-03-27T05:52:20.648Z,6.79
2017-03-27T05:53:01.522Z,6.69
2017-03-27T05:53:42.399Z,6.75
2017-03-27T05:54:23.289Z,6.6
2017-03-27T05:55:04.173Z,6.57
2017-03-27T05:55:45.056Z,6.57
2017-03-27T05:56:25.933Z,6.75
2017-03-27T05:57:06.815Z,6.77
2017-03-27T05:57:47.696Z,6.84
2017-03-27T05:58:28.586Z,6.93
2017-03-27T05:59:09.468Z,6.87
2017-03-27T05:59:50.349Z,6.95
2017-03-27T06:00:31.222Z,6.87
2017-03-27T06:01:12.105Z,7.03
2017-03-27T06:01:52.981Z,7.02
2017-03-27T06:02:33.863Z,6.99
2017-03-27T06:03:14.734Z,7.1
2017-03-27T06:03:55.619Z,7.07
2017-03-27T06:04:36.508Z,7.03
2017-03-27T06:05:17.371Z,7.1
2017-03-27T06:05:58.256Z,7.13
2017-03-27T06:06:39.137Z,7.13
2017-03-27T06:07:20.019Z,7.15
2017-03-27T06:08:00.901Z,7.11
2017-03-27T06:08:41.781Z,7.23
2017-03-27T06:09:22.661Z,7.23
2017-03-27T06:10:03.542Z,7.21
2017-03-27T06:10:44.425Z,7.15
2017-03-27T06:11:25.322Z,7.21
2017-03-27T06:12:06.205Z,7.33
2017-03-27T06:12:47.088Z,7.28
2017-03-27T06:13:27.970Z,7.28
2017-03-27T06:14:08.845Z,7.31
2017-03-27T06:14:49.738Z,7.31
2017-03-27T06:15:30.614Z,7.31
2017-03-27T06:16:11.498Z,7.25
2017-03-27T06:16:52.387Z,7.21
2017-03-27T06:17:33.271Z,7.29
2017-03-27T06:18:14.153Z,7.31
2017-03-27T06:18:55.024Z,7.43
2017-03-27T06:19:35.903Z,7.33
2017-03-27T06:20:16.789Z,7.35
2017-03-27T06:20:57.674Z,7.38
2017-03-27T06:21:38.559Z,7.45
2017-03-27T06:22:19.441Z,7.38
2017-03-27T06:23:00.327Z,7.4
2017-03-27T06:23:41.208Z,7.43
2017-03-27T06:24:22.103Z,7.43
2017-03-27T06:25:02.980Z,7.56
2017-03-27T06:25:43.866Z,7.66
2017-03-27T06:26:24.746Z,7.66
2017-03-27T06:27:05.630Z,7.67
2017-03-27T06:27:46.507Z,7.67
2017-03-27T06:28:27.395Z,7.6
2017-03-27T06:29:08.282Z,7.57
2017-03-27T06:29:49.166Z,7.6
2017-03-27T06:30:30.047Z,7.72
2017-03-27T06:31:10.930Z,7.75
2017-03-27T06:31:51.812Z,7.79
2017-03-27T06:32:32.696Z,7.67
2017-03-27T06:33:13.584Z,7.8
2017-03-27T06:33:54.465Z,7.85
2017-03-27T06:34:35.374Z,7.9
2017-03-27T06:35:16.248Z,7.95
2017-03-27T06:35:57.134Z,7.94
2017-03-27T06:36:38.017Z,8.13
2017-03-27T06:37:18.909Z,8.24
2017-03-27T06:37:59.797Z,8.3
2017-03-27T06:38:40.673Z,8.26
2017-03-27T06:39:21.555Z,8.26
2017-03-27T06:40:02.438Z,8.27
2017-03-27T06:40:43.348Z,8.2
2017-03-27T06:41:24.237Z,8.19
2017-03-27T06:42:05.120Z,8.24
2017-03-27T06:42:45.998Z,8.44
2017-03-27T06:43:26.911Z,8.49
2017-03-27T06:44:07.794Z,8.51
2017-03-27T06:44:48.673Z,8.51
2017-03-27T06:45:29.559Z,8.52
2017-03-27T06:46:10.437Z,8.49
2017-03-27T06:46:51.321Z,8.48
2017-03-27T06:47:32.187Z,8.48
2017-03-27T06:48:13.072Z,8.46
2017-03-27T06:48:53.955Z,8.34
2017-03-27T06:49:34.837Z,8.36
2017-03-27T06:50:15.717Z,8.34
2017-03-27T06:50:56.600Z,8.44
2017-03-27T06:51:37.480Z,8.58
2017-03-27T06:52:18.368Z,8.64
2017-03-27T06:52:59.232Z,8.71
2017-03-27T06:53:40.110Z,8.71
2017-03-27T06:54:20.989Z,8.91
2017-03-27T06:55:01.871Z,8.94
2017-03-27T06:55:42.759Z,8.99
2017-03-27T06:56:23.654Z,8.95
2017-03-27T06:57:04.525Z,8.95
2017-03-27T06:57:45.413Z,8.82
2017-03-27T06:58:26.290Z,8.99
2017-03-27T06:59:07.171Z,8.91
2017-03-27T06:59:48.058Z,8.81
2017-03-27T07:00:28.946Z,8.95
2017-03-27T07:01:09.831Z,8.88
2017-03-27T07:01:50.711Z,9.04
2017-03-27T07:02:31.601Z,9.13
2017-03-27T07:03:12.480Z,9.13
2017-03-27T07:03:53.364Z,9.06
2017-03-27T07:04:34.248Z,9.14
2017-03-27T07:05:15.139Z,9.21
2017-03-27T07:05:56.007Z,9.25
2017-03-27T07:06:36.891Z,9.34
2017-03-27T07:07:17.773Z,9.37
2017-03-27T07:07:58.653Z,9.37
2017-03-27T07:08:39.537Z,9.43
2017-03-27T07:09:20.420Z,9.29
2017-03-27T07:10:01.309Z,9.28
2017-03-27T07:10:42.195Z,9.31
2017-03-27T07:11:23.079Z,9.34
2017-03-27T07:12:03.964Z,9.19
2017-03-27T07:12:44.845Z,9.23
2017-03-27T07:13:25.729Z,9.34
2017-03-27T07:14:06.606Z,9.43
2017-03-27T07:14:47.496Z,9.46
2017-03-27T07:15:28.379Z,9.48
2017-03-27T07:16:09.265Z,9.61
2017-03-27T07:16:50.146Z,9.66
2017-03-27T07:17:31.029Z,9.72
2017-03-27T07:18:11.909Z,9.68
2017-03-27T07:18:52.790Z,9.62
2017-03-27T07:19:33.674Z,9.65
2017-03-27T07:20:14.553Z,9.68
2017-03-27T07:20:55.424Z,9.48
2017-03-27T07:21:36.302Z,9.54
2017-03-27T07:22:17.188Z,9.51
2017-03-27T07:22:58.075Z,9.55
2017-03-27T07:23:38.943Z,9.59
2017-03-27T07:24:19.825Z,9.72
2017-03-27T07:25:00.704Z,9.84
2017-03-27T07:25:41.592Z,10.01
2017-03-27T07:26:22.473Z,10.2
2017-03-27T07:27:03.356Z,10.2
2017-03-27T07:27:44.233Z,10.4
2017-03-27T07:28:25.139Z,10.34
2017-03-27T07:29:06.020Z,10.19
2017-03-27T07:29:46.905Z,10.3
2017-03-27T07:30:27.789Z,10.35
2017-03-27T07:31:08.674Z,10.38
2017-03-27T07:31:49.552Z,10.38
2017-03-27T07:32:30.431Z,10.2
2017-03-27T07:33:11.307Z,10.38
2017-03-27T07:33:52.197Z,10.44
2017-03-27T07:34:33.081Z,10.54
2017-03-27T07:35:13.986Z,10.56
2017-03-27T07:35:54.878Z,10.42
2017-03-27T07:36:35.762Z,10.57
2017-03-27T07:37:16.672Z,10.56
2017-03-27T07:37:57.588Z,10.54
2017-03-27T07:38:38.438Z,10.6
2017-03-27T07:39:19.315Z,10.69
2017-03-27T07:40:00.198Z,10.89
2017-03-27T07:40:41.078Z,10.87
2017-03-27T07:41:21.960Z,10.86
2017-03-27T07:42:02.842Z,10.69
2017-03-27T07:42:43.727Z,10.79
2017-03-27T07:43:24.602Z,10.78
2017-03-27T07:44:05.487Z,10.72
2017-03-27T07:44:46.357Z,10.56
2017-03-27T07:45:27.248Z,10.69
2017-03-27T07:46:08.137Z,10.86
2017-03-27T07:46:49.025Z,10.9
2017-03-27T07:47:29.912Z,10.93
2017-03-27T07:48:10.797Z,10.97
2017-03-27T07:48:51.678Z,11.02
2017-03-27T07:49:32.561Z,10.93
2017-03-27T07:50:13.458Z,10.87
2017-03-27T07:50:54.320Z,10.84
2017-03-27T07:51:35.216Z,10.94
2017-03-27T07:52:16.100Z,10.96
2017-03-27T07:52:56.989Z,11.04
2017-03-27T07:53:37.868Z,11.12
2017-03-27T07:54:18.756Z,11.1
2017-03-27T07:54:59.810Z,11.19
2017-03-27T07:55:40.684Z,11.23
2017-03-27T07:56:21.594Z,11.18
2017-03-27T07:57:02.479Z,11.29
2017-03-27T07:57:43.368Z,11.37
2017-03-27T07:58:24.253Z,11.47
2017-03-27T07:59:05.135Z,11.52
2017-03-27T07:59:46.017Z,11.69
2017-03-27T08:00:26.902Z,11.7
2017-03-27T08:01:07.794Z,11.88
2017-03-27T08:01:48.721Z,12
2017-03-27T08:02:29.588Z,12.25
2017-03-27T08:03:10.462Z,12.35
2017-03-27T08:03:51.345Z,12.49
2017-03-27T08:04:32.229Z,12.61
2017-03-27T08:05:13.119Z,12.62
2017-03-27T08:05:54.007Z,12.76
2017-03-27T08:06:34.908Z,12.91
2017-03-27T08:07:15.793Z,13.04
2017-03-27T08:07:56.699Z,13.19
2017-03-27T08:08:37.578Z,13.18
2017-03-27T08:09:18.467Z,13.3
2017-03-27T08:09:59.353Z,13.25
2017-03-27T08:10:40.235Z,13.41
2017-03-27T08:11:21.124Z,13.52
2017-03-27T08:12:02.015Z,13.67
2017-03-27T08:12:42.906Z,13.77
2017-03-27T08:13:23.798Z,13.7
2017-03-27T08:14:04.688Z,13.79
2017-03-27T08:14:45.583Z,13.93
2017-03-27T08:15:26.470Z,13.93
2017-03-27T08:16:07.360Z,14.14
2017-03-27T08:16:48.253Z,14.18
2017-03-27T08:17:29.142Z,14.33
2017-03-27T08:18:10.030Z,14.48
2017-03-27T08:18:50.924Z,14.5
2017-03-27T08:19:31.826Z,14.62
2017-03-27T08:20:12.716Z,14.63
2017-03-27T08:20:53.667Z,14.65
2017-03-27T08:21:34.500Z,14.69
2017-03-27T08:22:15.400Z,14.91
2017-03-27T08:22:56.287Z,14.86
2017-03-27T08:23:37.186Z,14.96
2017-03-27T08:24:18.075Z,15.04
2017-03-27T08:24:58.973Z,15.14
2017-03-27T08:25:39.906Z,15.29
2017-03-27T08:26:20.781Z,15.19
2017-03-27T08:27:01.665Z,15.27
2017-03-27T08:27:42.568Z,15.33
2017-03-27T08:28:23.460Z,15.36
2017-03-27T08:29:04.368Z,15.46
2017-03-27T08:29:45.261Z,15.52
2017-03-27T08:30:26.159Z,15.75
2017-03-27T08:31:07.055Z,15.7
2017-03-27T08:31:47.964Z,15.79
2017-03-27T08:32:28.863Z,15.75
2017-03-27T08:33:09.766Z,15.67
2017-03-27T08:33:50.664Z,15.58
2017-03-27T08:34:31.561Z,15.61
2017-03-27T08:35:12.477Z,15.88
2017-03-27T08:35:53.379Z,15.95
2017-03-27T08:36:34.315Z,15.94
2017-03-27T08:37:15.222Z,15.91
2017-03-27T08:37:56.141Z,15.97
2017-03-27T08:38:37.043Z,16.04
2017-03-27T08:39:17.952Z,16.16
2017-03-27T08:39:58.844Z,16.24
2017-03-27T08:40:39.746Z,16.38
2017-03-27T08:41:20.647Z,16.39
2017-03-27T08:42:01.549Z,16.26
2017-03-27T08:42:42.452Z,16.2
2017-03-27T08:43:23.353Z,16.23
2017-03-27T08:44:04.263Z,15.84
2017-03-27T08:44:45.161Z,15.82
2017-03-27T08:45:26.077Z,15.82
2017-03-27T08:46:06.982Z,16.05
2017-03-27T08:46:47.890Z,16.15
2017-03-27T08:47:28.791Z,16
2017-03-27T08:48:09.690Z,16.08
2017-03-27T08:48:50.599Z,16.04
2017-03-27T08:49:31.507Z,16.23
2017-03-27T08:50:12.413Z,16.42
2017-03-27T08:50:53.288Z,16.51
2017-03-27T08:51:34.193Z,16.72
2017-03-27T08:52:15.099Z,16.83
2017-03-27T08:52:56.025Z,16.76
2017-03-27T08:53:36.924Z,16.53
2017-03-27T08:54:17.822Z,16.35
2017-03-27T08:54:58.722Z,16.51
2017-03-27T08:55:39.623Z,16.69
2017-03-27T08:56:20.524Z,16.36
2017-03-27T08:57:01.438Z,16.21
2017-03-27T08:57:42.341Z,16.33
2017-03-27T08:58:23.250Z,16.64
2017-03-27T08:59:04.148Z,16.68
2017-03-27T08:59:45.047Z,16.66
2017-03-27T09:00:25.950Z,16.83
2017-03-27T09:01:06.856Z,16.68
2017-03-27T09:01:47.756Z,16.66
2017-03-27T09:02:28.652Z,16.68
2017-03-27T09:03:09.555Z,17.02